sim
Sign-in with your pilot id or email,
or register
Callsign
Passwort

Schedule Details

Flight Number: RYR2525 (2)
Departure: Gothenburg Landvetter Airport (ESGG) at 13:35
Arrival: Malaga Costa Del Sol Airport (LEMG) at 17:35
Route: Ryanair Passenger Schedule. Enter filed route here before submitting Pirep.

Weather Information
Getting current METAR information for ESGG 200220Z 14010KT 9999 SCT036 BKN048 04/03 Q1015
Getting current METAR information for LEMG 200230Z 29003KT 9999 FEW015 BKN035 17/14 Q1017 NOSIG

Schedule Frequency

Route Map